createdAt,value
2022-10-09T00:00:49.584Z,6.3
2022-10-09T00:02:50.015Z,6.3
2022-10-09T00:04:50.554Z,8.6
2022-10-09T00:06:50.127Z,8.6
2022-10-09T00:08:50.149Z,7.6
2022-10-09T00:10:50.184Z,9.3
2022-10-09T00:12:50.378Z,9.3
2022-10-09T00:14:50.471Z,8.5
2022-10-09T00:16:49.894Z,8.5
2022-10-09T00:18:50.119Z,8.1
2022-10-09T00:20:50.107Z,8.4
2022-10-09T00:22:50.308Z,8.4
2022-10-09T00:24:49.708Z,8.8
2022-10-09T00:26:49.983Z,8.8
2022-10-09T00:28:50.158Z,10.4
2022-10-09T00:30:49.948Z,10.4
2022-10-09T00:32:50.567Z,10.8
2022-10-09T00:34:49.821Z,10.8
2022-10-09T00:36:50.223Z,8.1
2022-10-09T00:38:50.227Z,8.8
2022-10-09T00:40:50.311Z,7.2
2022-10-09T00:42:50.616Z,9.7
2022-10-09T00:44:49.722Z,9.7
2022-10-09T00:46:50.196Z,11.1
2022-10-09T00:48:50.119Z,11.5
2022-10-09T00:50:50.137Z,7.9
2022-10-09T00:52:50.473Z,7.9
2022-10-09T00:54:49.639Z,12.0
2022-10-09T00:56:49.921Z,9.5
2022-10-09T00:58:49.810Z,9.0
2022-10-09T01:00:49.744Z,8.9
2022-10-09T01:02:49.853Z,8.9
2022-10-09T01:04:50.058Z,11.8
2022-10-09T01:06:50.273Z,8.9
2022-10-09T01:08:50.188Z,8.0
2022-10-09T01:10:50.276Z,8.0
2022-10-09T01:12:50.534Z,10.0
2022-10-09T01:14:49.711Z,9.9
2022-10-09T01:16:49.842Z,9.1
2022-10-09T01:18:49.933Z,9.2
2022-10-09T01:20:49.772Z,10.2
2022-10-09T01:22:50.365Z,10.2
2022-10-09T01:24:50.501Z,10.8
2022-10-09T01:26:49.807Z,8.4
2022-10-09T01:28:49.650Z,8.7
2022-10-09T01:30:49.842Z,8.7
2022-10-09T01:32:50.406Z,11.5
2022-10-09T01:34:50.260Z,8.2
2022-10-09T01:36:49.672Z,9.6
2022-10-09T01:38:50.489Z,9.6
2022-10-09T01:40:49.582Z,8.9
2022-10-09T01:42:50.718Z,9.4
2022-10-09T01:44:49.926Z,11.4
2022-10-09T01:46:50.208Z,8.3
2022-10-09T01:48:50.168Z,8.3
2022-10-09T01:50:50.001Z,11.5
2022-10-09T01:52:50.259Z,11.5
2022-10-09T01:54:50.425Z,11.1
2022-10-09T01:56:49.728Z,9.4
2022-10-09T01:58:49.830Z,9.4
2022-10-09T02:00:49.752Z,9.7
2022-10-09T02:02:50.291Z,9.2
2022-10-09T02:04:49.777Z,9.0
2022-10-09T02:06:50.275Z,9.0
2022-10-09T02:08:49.912Z,7.9
2022-10-09T02:10:49.931Z,10.1
2022-10-09T02:12:50.201Z,7.9
2022-10-09T02:14:49.563Z,8.2
2022-10-09T02:16:50.022Z,12.3
2022-10-09T02:18:49.891Z,8.7
2022-10-09T02:20:49.966Z,8.7
2022-10-09T02:22:50.155Z,11.7
2022-10-09T02:24:50.332Z,11.7
2022-10-09T02:26:49.577Z,8.3
2022-10-09T02:28:50.412Z,8.3
2022-10-09T02:30:49.675Z,10.4
2022-10-09T02:32:50.183Z,9.9
2022-10-09T02:34:49.597Z,8.6
2022-10-09T02:36:49.931Z,8.6
2022-10-09T02:38:49.999Z,10.3
2022-10-09T02:40:50.017Z,10.7
2022-10-09T02:42:50.418Z,10.9
2022-10-09T02:44:50.453Z,9.4
2022-10-09T02:46:50.024Z,9.4
2022-10-09T02:48:50.387Z,11.0
2022-10-09T02:50:50.274Z,11.2
2022-10-09T02:52:50.507Z,9.5
2022-10-09T02:54:49.623Z,10.3
2022-10-09T02:56:49.874Z,10.3
2022-10-09T02:58:49.789Z,12.0
2022-10-09T03:00:49.819Z,8.5
2022-10-09T03:02:49.981Z,8.5
2022-10-09T03:04:49.649Z,12.0
2022-10-09T03:06:50.040Z,12.0
2022-10-09T03:08:49.948Z,8.6
2022-10-09T03:10:50.173Z,8.5
2022-10-09T03:12:50.423Z,8.5
2022-10-09T03:14:49.956Z,9.0
2022-10-09T03:16:50.524Z,9.0
2022-10-09T03:18:49.615Z,11.9
2022-10-09T03:20:50.499Z,10.9
2022-10-09T03:22:49.764Z,13.2
2022-10-09T03:24:50.346Z,13.2
2022-10-09T03:26:49.753Z,15.8
2022-10-09T03:28:49.868Z,11.2
2022-10-09T03:30:50.130Z,11.3
2022-10-09T03:32:50.532Z,8.6
2022-10-09T03:34:50.242Z,8.6
2022-10-09T03:36:49.681Z,11.0
2022-10-09T03:38:49.718Z,11.6
2022-10-09T03:40:49.783Z,12.4
2022-10-09T03:42:50.396Z,15.4
2022-10-09T03:44:49.843Z,15.4
2022-10-09T03:46:50.246Z,9.9
2022-10-09T03:48:49.640Z,12.6
2022-10-09T03:50:49.577Z,10.2
2022-10-09T03:52:50.831Z,10.2
2022-10-09T03:54:49.757Z,8.9
2022-10-09T03:56:49.969Z,10.8
2022-10-09T03:58:49.984Z,9.7
2022-10-09T04:00:50.199Z,7.9
2022-10-09T04:02:49.880Z,7.9
2022-10-09T04:04:50.128Z,9.4
2022-10-09T04:06:50.497Z,9.8
2022-10-09T04:08:50.327Z,10.1
2022-10-09T04:10:50.433Z,9.9
2022-10-09T04:12:50.716Z,9.9
2022-10-09T04:14:49.825Z,9.4
2022-10-09T04:16:50.087Z,9.4
2022-10-09T04:18:50.138Z,11.6
2022-10-09T04:20:50.027Z,11.6
2022-10-09T04:22:50.319Z,11.3
2022-10-09T04:24:49.822Z,11.3
2022-10-09T04:26:50.114Z,10.7
2022-10-09T04:28:50.244Z,8.4
2022-10-09T04:30:50.548Z,11.1
2022-10-09T04:32:49.857Z,11.1
2022-10-09T04:34:50.438Z,9.2
2022-10-09T04:36:49.975Z,10.2
2022-10-09T04:38:50.012Z,9.5
2022-10-09T04:40:49.787Z,9.5
2022-10-09T04:42:50.030Z,13.0
2022-10-09T04:44:49.680Z,9.2
2022-10-09T04:46:50.164Z,9.9
2022-10-09T04:48:49.911Z,7.8
2022-10-09T04:50:50.014Z,7.8
2022-10-09T04:52:50.403Z,10.1
2022-10-09T04:54:49.828Z,10.1
2022-10-09T04:56:50.134Z,9.0
2022-10-09T04:58:50.199Z,12.2
2022-10-09T05:00:50.299Z,12.2
2022-10-09T05:02:50.754Z,9.9
2022-10-09T05:04:49.713Z,8.8
2022-10-09T05:06:50.405Z,8.7
2022-10-09T05:08:50.443Z,10.7
2022-10-09T05:10:49.717Z,9.1
2022-10-09T05:12:50.198Z,9.1
2022-10-09T05:14:49.581Z,9.1
2022-10-09T05:18:50.160Z,9.7
2022-10-09T05:20:50.039Z,9.7
2022-10-09T05:22:50.511Z,9.4
2022-10-09T05:24:49.792Z,8.8
2022-10-09T05:26:50.280Z,7.7
2022-10-09T05:28:50.343Z,7.7
2022-10-09T05:30:49.754Z,9.7
2022-10-09T05:32:50.230Z,8.7
2022-10-09T05:34:50.479Z,8.8
2022-10-09T05:36:49.998Z,10.2
2022-10-09T05:38:50.063Z,10.2
2022-10-09T05:40:50.114Z,9.4
2022-10-09T05:42:50.622Z,8.5
2022-10-09T05:44:49.840Z,9.7
2022-10-09T05:46:50.234Z,9.2
2022-10-09T05:48:50.107Z,9.2
2022-10-09T05:50:50.070Z,12.1
2022-10-09T05:52:50.380Z,8.6
2022-10-09T05:54:49.829Z,11.3
2022-10-09T05:56:50.225Z,8.8
2022-10-09T05:58:50.121Z,10.1
2022-10-09T06:00:50.100Z,10.1
2022-10-09T06:02:50.273Z,9.2
2022-10-09T06:04:49.569Z,8.8
2022-10-09T06:06:49.892Z,8.8
2022-10-09T06:08:49.976Z,9.0
2022-10-09T06:10:49.964Z,8.4
2022-10-09T06:12:50.036Z,10.0
2022-10-09T06:14:49.857Z,9.2
2022-10-09T06:16:50.456Z,9.1
2022-10-09T06:18:50.410Z,9.1
2022-10-09T06:20:50.315Z,9.1
2022-10-09T06:22:50.768Z,8.4
2022-10-09T06:24:49.693Z,8.4
2022-10-09T06:26:50.135Z,8.3
2022-10-09T06:28:50.177Z,8.1
2022-10-09T06:30:49.773Z,7.3
2022-10-09T06:32:50.108Z,9.1
2022-10-09T06:34:50.559Z,7.9
2022-10-09T06:36:49.825Z,7.9
2022-10-09T06:38:49.830Z,8.9
2022-10-09T06:40:50.069Z,7.8
2022-10-09T06:42:50.196Z,9.6
2022-10-09T06:44:50.035Z,8.0
2022-10-09T06:46:50.237Z,8.0
2022-10-09T06:48:50.249Z,7.8
2022-10-09T06:50:50.183Z,7.8
2022-10-09T06:52:50.431Z,7.3
2022-10-09T06:54:49.674Z,7.3
2022-10-09T06:56:50.120Z,7.4
2022-10-09T06:58:49.990Z,7.3
2022-10-09T07:00:49.987Z,7.8
2022-10-09T07:02:50.210Z,7.2
2022-10-09T07:04:49.579Z,6.5
2022-10-09T07:06:50.021Z,6.5
2022-10-09T07:08:49.925Z,6.4
2022-10-09T07:10:49.983Z,6.2
2022-10-09T07:12:50.579Z,6.4
2022-10-09T07:14:49.680Z,6.0
2022-10-09T07:16:50.156Z,6.0
2022-10-09T07:18:50.260Z,6.0
2022-10-09T07:20:50.288Z,5.9
2022-10-09T07:22:50.457Z,6.5
2022-10-09T07:24:49.605Z,5.9
2022-10-09T07:26:49.819Z,7.1
2022-10-09T07:28:49.954Z,7.1
2022-10-09T07:30:50.320Z,6.0
2022-10-09T07:32:49.950Z,5.6
2022-10-09T07:34:50.398Z,5.6
2022-10-09T07:36:49.929Z,5.3
2022-10-09T07:38:49.789Z,5.3
2022-10-09T07:40:49.916Z,5.5
2022-10-09T07:42:50.076Z,5.8
2022-10-09T07:44:49.683Z,5.8
2022-10-09T07:46:50.156Z,6.1
2022-10-09T07:48:50.268Z,6.4
2022-10-09T07:50:50.301Z,6.3
2022-10-09T07:52:50.836Z,5.8
2022-10-09T07:54:50.142Z,5.8
2022-10-09T07:56:50.449Z,5.8
2022-10-09T07:58:50.508Z,6.9
2022-10-09T08:00:49.600Z,5.8
2022-10-09T08:02:49.814Z,5.8
2022-10-09T08:04:49.667Z,5.5
2022-10-09T08:06:50.260Z,5.4
2022-10-09T08:08:50.269Z,5.5
2022-10-09T08:10:50.187Z,5.5
2022-10-09T08:12:50.934Z,5.5
2022-10-09T08:14:50.335Z,5.4
2022-10-09T08:16:50.514Z,5.7
2022-10-09T08:18:50.516Z,6.1
2022-10-09T08:20:50.474Z,5.1
2022-10-09T08:22:50.560Z,5.1
2022-10-09T08:24:50.339Z,5.3
2022-10-09T08:26:49.679Z,5.0
2022-10-09T08:28:49.646Z,5.1
2022-10-09T08:30:50.265Z,6.2
2022-10-09T08:32:50.997Z,6.2
2022-10-09T08:34:50.461Z,4.9
2022-10-09T08:36:49.816Z,4.9
2022-10-09T08:38:49.722Z,5.0
2022-10-09T08:40:49.642Z,5.2
2022-10-09T08:42:49.996Z,5.2
2022-10-09T08:44:49.979Z,4.6
2022-10-09T08:46:50.454Z,4.9
2022-10-09T08:48:49.567Z,5.4
2022-10-09T08:50:49.647Z,5.4
2022-10-09T08:52:50.229Z,3.0
2022-10-09T08:54:49.612Z,3.0
2022-10-09T08:56:50.033Z,4.3
2022-10-09T08:58:49.982Z,3.1
2022-10-09T09:00:49.906Z,3.1
2022-10-09T09:02:50.082Z,4.2
2022-10-09T09:04:54.510Z,3.7
2022-10-09T09:06:50.374Z,4.3
2022-10-09T09:08:50.470Z,4.4
2022-10-09T09:10:50.228Z,4.4
2022-10-09T09:12:50.437Z,2.7
2022-10-09T09:14:50.296Z,3.6
2022-10-09T09:16:49.686Z,3.6
2022-10-09T09:18:49.684Z,2.8
2022-10-09T09:20:49.636Z,2.8
2022-10-09T09:22:50.071Z,2.2
2022-10-09T09:24:50.036Z,2.7
2022-10-09T09:26:50.233Z,2.4
2022-10-09T09:28:50.171Z,2.4
2022-10-09T09:30:49.604Z,2.1
2022-10-09T09:32:50.181Z,2.1
2022-10-09T09:34:50.288Z,3.6
2022-10-09T09:36:49.849Z,2.5
2022-10-09T09:39:25.163Z,3.6
2022-10-09T09:40:49.751Z,3.6
2022-10-09T09:42:49.813Z,2.2
2022-10-09T09:44:50.022Z,3.2
2022-10-09T09:46:50.470Z,4.1
2022-10-09T09:48:49.738Z,3.1
2022-10-09T09:50:59.782Z,3.1
2022-10-09T09:52:50.166Z,1.9
2022-10-09T09:54:50.368Z,2.4
2022-10-09T09:57:12.298Z,2.2
2022-10-09T09:58:49.671Z,2.2
2022-10-09T10:00:49.803Z,2.0
2022-10-09T10:02:50.324Z,1.7
2022-10-09T10:04:50.115Z,2.2
2022-10-09T10:06:50.453Z,2.3
2022-10-09T10:08:50.491Z,2.3
2022-10-09T10:10:50.373Z,2.1
2022-10-09T10:12:49.781Z,2.1
2022-10-09T10:14:50.185Z,2.5
2022-10-09T10:16:49.909Z,2.2
2022-10-09T10:18:49.930Z,2.2
2022-10-09T10:20:50.449Z,2.8
2022-10-09T10:22:50.993Z,2.0
2022-10-09T10:24:49.997Z,2.0
2022-10-09T10:26:50.382Z,1.9
2022-10-09T10:28:50.355Z,1.9
2022-10-09T10:30:50.416Z,2.9
2022-10-09T10:32:50.159Z,2.4
2022-10-09T10:34:49.982Z,4.0
2022-10-09T10:36:50.378Z,4.1
2022-10-09T10:38:50.291Z,4.1
2022-10-09T10:40:50.456Z,2.1
2022-10-09T10:42:50.526Z,1.7
2022-10-09T10:44:49.633Z,2.6
2022-10-09T10:46:50.031Z,2.6
2022-10-09T10:48:50.260Z,2.3
2022-10-09T10:50:50.383Z,1.7
2022-10-09T10:52:50.467Z,4.3
2022-10-09T10:54:50.490Z,2.2
2022-10-09T10:56:50.231Z,2.2
2022-10-09T10:58:49.929Z,1.7
2022-10-09T11:00:50.200Z,2.1
2022-10-09T11:02:50.878Z,2.4
2022-10-09T11:04:49.617Z,2.2
2022-10-09T11:06:50.326Z,2.2
2022-10-09T11:08:50.377Z,1.7
2022-10-09T11:10:50.229Z,4.2
2022-10-09T11:12:50.220Z,1.7
2022-10-09T11:14:50.145Z,1.7
2022-10-09T11:16:50.499Z,1.6
2022-10-09T11:18:49.775Z,2.0
2022-10-09T11:20:50.147Z,2.5
2022-10-09T11:22:50.506Z,2.5
2022-10-09T11:24:50.294Z,2.1
2022-10-09T11:26:49.676Z,2.1
2022-10-09T11:28:49.715Z,2.1
2022-10-09T11:30:50.176Z,1.9
2022-10-09T11:32:50.440Z,2.3
2022-10-09T11:34:49.896Z,1.4
2022-10-09T11:36:50.228Z,1.4
2022-10-09T11:38:50.148Z,1.7
2022-10-09T11:40:50.318Z,1.7
2022-10-09T11:42:50.264Z,2.8
2022-10-09T11:44:50.286Z,1.5
2022-10-09T11:46:49.798Z,1.5
2022-10-09T11:48:50.296Z,2.2
2022-10-09T11:50:50.455Z,1.7
2022-10-09T11:52:50.354Z,1.6
2022-10-09T11:54:50.322Z,1.6
2022-10-09T11:56:49.769Z,1.4
2022-10-09T11:58:50.082Z,1.5
2022-10-09T12:00:50.212Z,1.7
2022-10-09T12:02:49.863Z,2.0
2022-10-09T12:04:54.705Z,2.0
2022-10-09T12:06:49.541Z,1.5
2022-10-09T12:08:50.607Z,1.6
2022-10-09T12:10:50.293Z,1.4
2022-10-09T12:12:50.796Z,1.4
2022-10-09T12:14:50.182Z,1.5
2022-10-09T12:16:49.876Z,1.5
2022-10-09T12:18:50.407Z,1.4
2022-10-09T12:20:50.420Z,1.7
2022-10-09T12:23:07.622Z,1.7
2022-10-09T12:24:50.489Z,1.5
2022-10-09T12:26:49.972Z,1.5
2022-10-09T12:28:50.092Z,1.4
2022-10-09T12:30:49.791Z,2.3
2022-10-09T12:32:49.767Z,2.3
2022-10-09T12:34:49.706Z,1.7
2022-10-09T12:36:50.197Z,2.1
2022-10-09T12:38:50.507Z,2.1
2022-10-09T12:40:50.531Z,1.6
2022-10-09T12:42:49.804Z,1.6
2022-10-09T12:44:50.518Z,1.4
2022-10-09T12:46:49.945Z,1.5
2022-10-09T12:48:49.798Z,1.7
2022-10-09T12:50:50.011Z,1.5
2022-10-09T12:52:50.025Z,1.5
2022-10-09T12:54:49.764Z,1.6
2022-10-09T12:56:50.097Z,1.7
2022-10-09T12:58:50.021Z,2.8
2022-10-09T13:00:50.032Z,2.8
2022-10-09T13:02:49.961Z,1.3
2022-10-09T13:04:50.193Z,1.5
2022-10-09T13:06:49.627Z,1.4
2022-10-09T13:08:49.646Z,2.0
2022-10-09T13:10:49.611Z,2.0
2022-10-09T13:12:49.804Z,1.6
2022-10-09T13:14:50.470Z,1.6
2022-10-09T13:16:50.220Z,1.4
2022-10-09T13:18:49.600Z,1.4
2022-10-09T13:20:49.589Z,1.6
2022-10-09T13:22:49.866Z,1.4
2022-10-09T13:24:49.775Z,1.4
2022-10-09T13:26:50.254Z,1.6
2022-10-09T13:28:50.156Z,1.3
2022-10-09T13:30:50.309Z,1.3
2022-10-09T13:32:49.716Z,1.4
2022-10-09T13:34:50.097Z,2.1
2022-10-09T13:36:50.467Z,2.4
2022-10-09T13:38:49.746Z,2.4
2022-10-09T13:40:50.442Z,1.2
2022-10-09T13:42:50.433Z,1.3
2022-10-09T13:44:49.571Z,1.8
2022-10-09T13:46:49.933Z,2.4
2022-10-09T13:48:49.987Z,2.4
2022-10-09T13:50:49.899Z,1.1
2022-10-09T13:52:49.827Z,1.5
2022-10-09T13:54:50.171Z,1.3
2022-10-09T13:56:50.471Z,1.1
2022-10-09T13:58:49.581Z,1.1
2022-10-09T14:00:49.557Z,1.1
2022-10-09T14:02:50.142Z,1.2
2022-10-09T14:04:50.030Z,1.2
2022-10-09T14:06:49.879Z,1.2
2022-10-09T14:08:50.405Z,1.2
2022-10-09T14:10:50.435Z,1.2
2022-10-09T14:12:50.746Z,1.2
2022-10-09T14:14:50.341Z,1.5
2022-10-09T14:16:49.876Z,1.2
2022-10-09T14:18:50.338Z,1.2
2022-10-09T14:20:50.315Z,1.3
2022-10-09T14:22:50.750Z,1.6
2022-10-09T14:24:50.036Z,1.1
2022-10-09T14:26:51.609Z,1.3
2022-10-09T14:28:49.643Z,1.3
2022-10-09T14:30:50.059Z,1.2
2022-10-09T14:32:50.353Z,1.4
2022-10-09T14:34:49.606Z,1.3
2022-10-09T14:36:50.085Z,1.3
2022-10-09T14:38:50.208Z,1.1
2022-10-09T14:40:50.396Z,1.2
2022-10-09T14:42:50.718Z,1.4
2022-10-09T14:44:49.645Z,1.6
2022-10-09T14:46:50.084Z,1.6
2022-10-09T14:48:50.243Z,1.5
2022-10-09T14:50:50.264Z,1.5
2022-10-09T14:52:50.355Z,1.5
2022-10-09T14:54:50.365Z,1.5
2022-10-09T14:56:49.721Z,1.3
2022-10-09T14:58:49.673Z,1.3
2022-10-09T15:00:49.940Z,1.6
2022-10-09T15:02:50.043Z,1.7
2022-10-09T15:04:50.347Z,1.4
2022-10-09T15:06:49.999Z,1.4
2022-10-09T15:08:50.131Z,1.4
2022-10-09T15:10:50.503Z,1.6
2022-10-09T15:12:50.529Z,2.4
2022-10-09T15:14:49.862Z,2.4
2022-10-09T15:16:50.304Z,2.6
2022-10-09T15:18:50.478Z,2.9
2022-10-09T15:20:49.600Z,2.2
2022-10-09T15:22:49.756Z,1.7
2022-10-09T15:24:49.890Z,1.7
2022-10-09T15:26:50.485Z,2.1
2022-10-09T15:28:49.893Z,1.4
2022-10-09T15:30:49.610Z,2.2
2022-10-09T15:32:49.550Z,2.2
2022-10-09T15:34:50.185Z,1.6
2022-10-09T15:36:49.679Z,1.6
2022-10-09T15:38:49.684Z,1.9
2022-10-09T15:40:49.992Z,1.8
2022-10-09T15:42:50.403Z,1.8
2022-10-09T15:44:50.457Z,1.8
2022-10-09T15:46:49.956Z,1.5
2022-10-09T15:48:50.033Z,1.5
2022-10-09T15:50:50.361Z,2.6
2022-10-09T15:52:50.044Z,1.6
2022-10-09T15:54:49.800Z,1.6
2022-10-09T15:56:50.218Z,1.6
2022-10-09T15:58:50.372Z,1.6
2022-10-09T16:00:50.363Z,1.5
2022-10-09T16:02:50.471Z,1.4
2022-10-09T16:04:49.827Z,1.4
2022-10-09T16:06:49.706Z,1.4
2022-10-09T16:08:49.709Z,1.6
2022-10-09T16:10:49.881Z,1.5
2022-10-09T16:12:50.915Z,1.8
2022-10-09T16:14:49.585Z,1.8
2022-10-09T16:16:50.132Z,2.1
2022-10-09T16:18:50.151Z,2.1
2022-10-09T16:20:50.346Z,1.5
2022-10-09T16:22:49.772Z,1.5
2022-10-09T16:24:50.524Z,2.9
2022-10-09T16:26:49.803Z,1.9
2022-10-09T16:28:50.183Z,2.5
2022-10-09T16:30:50.500Z,2.5
2022-10-09T16:32:50.805Z,2.2
2022-10-09T16:34:49.660Z,1.8
2022-10-09T16:36:50.277Z,1.5
2022-10-09T16:38:50.234Z,1.5
2022-10-09T16:41:01.665Z,1.8
2022-10-09T16:42:50.429Z,1.8
2022-10-09T16:44:50.446Z,2.0
2022-10-09T16:46:49.850Z,2.9
2022-10-09T16:48:50.022Z,1.9
2022-10-09T16:50:49.895Z,2.1
2022-10-09T16:52:49.958Z,2.1
2022-10-09T16:54:50.220Z,1.7
2022-10-09T16:56:49.648Z,2.0
2022-10-09T16:58:50.031Z,2.0
2022-10-09T17:00:50.106Z,2.0
2022-10-09T17:02:49.619Z,2.0
2022-10-09T17:04:50.454Z,2.9
2022-10-09T17:06:50.045Z,2.9
2022-10-09T17:08:49.712Z,2.6
2022-10-09T17:10:49.734Z,2.6
2022-10-09T17:12:49.886Z,2.5
2022-10-09T17:14:50.346Z,2.1
2022-10-09T17:16:49.760Z,2.2
2022-10-09T17:18:50.128Z,2.3
2022-10-09T17:20:50.390Z,2.2
2022-10-09T17:22:49.966Z,2.2
2022-10-09T17:24:50.331Z,2.2
2022-10-09T17:26:49.762Z,2.4
2022-10-09T17:28:49.970Z,2.4
2022-10-09T17:30:50.441Z,2.4
2022-10-09T17:32:50.573Z,3.4
2022-10-09T17:34:50.380Z,2.5
2022-10-09T17:36:49.700Z,2.5
2022-10-09T17:38:49.681Z,2.6
2022-10-09T17:40:49.705Z,2.6
2022-10-09T17:42:50.083Z,2.6
2022-10-09T17:44:50.082Z,2.8
2022-10-09T17:46:49.710Z,3.4
2022-10-09T17:48:49.818Z,4.9
2022-10-09T17:50:49.894Z,4.9
2022-10-09T17:52:50.124Z,4.1
2022-10-09T17:54:49.918Z,3.9
2022-10-09T17:56:49.642Z,3.2
2022-10-09T17:58:49.559Z,3.2
2022-10-09T18:00:49.755Z,5.3
2022-10-09T18:02:50.313Z,3.1
2022-10-09T18:04:50.252Z,3.5
2022-10-09T18:06:49.765Z,3.5
2022-10-09T18:08:49.792Z,5.6
2022-10-09T18:10:50.405Z,4.0
2022-10-09T18:12:50.435Z,3.6
2022-10-09T18:14:50.536Z,3.6
2022-10-09T18:16:50.390Z,3.6
2022-10-09T18:18:50.384Z,3.6
2022-10-09T18:20:50.258Z,4.1
2022-10-09T18:22:50.437Z,5.3
2022-10-09T18:24:49.723Z,5.3
2022-10-09T18:26:50.251Z,5.6
2022-10-09T18:28:50.325Z,5.6
2022-10-09T18:30:50.463Z,4.2
2022-10-09T18:32:50.615Z,4.4
2022-10-09T18:34:50.200Z,4.4
2022-10-09T18:36:50.507Z,6.0
2022-10-09T18:38:50.064Z,4.6
2022-10-09T18:40:50.118Z,4.6
2022-10-09T18:42:50.414Z,4.3
2022-10-09T18:44:49.945Z,4.4
2022-10-09T18:46:50.383Z,4.7
2022-10-09T18:48:49.624Z,4.7
2022-10-09T18:50:49.695Z,4.8
2022-10-09T18:52:49.834Z,3.9
2022-10-09T18:54:50.005Z,4.1
2022-10-09T18:56:50.220Z,3.5
2022-10-09T18:58:50.308Z,3.5
2022-10-09T19:00:49.622Z,4.0
2022-10-09T19:02:49.813Z,4.4
2022-10-09T19:04:50.273Z,3.7
2022-10-09T19:06:49.778Z,4.6
2022-10-09T19:08:49.864Z,4.6
2022-10-09T19:10:49.935Z,4.1
2022-10-09T19:12:50.539Z,3.7
2022-10-09T19:14:49.749Z,5.4
2022-10-09T19:16:50.145Z,5.4
2022-10-09T19:18:49.759Z,3.8
2022-10-09T19:20:49.790Z,5.7
2022-10-09T19:22:49.959Z,5.0
2022-10-09T19:24:50.181Z,3.5
2022-10-09T19:26:49.698Z,3.5
2022-10-09T19:28:49.832Z,3.3
2022-10-09T19:30:49.959Z,5.6
2022-10-09T19:32:50.278Z,3.3
2022-10-09T19:34:49.835Z,3.3
2022-10-09T19:36:50.174Z,3.7
2022-10-09T19:38:50.214Z,3.7
2022-10-09T19:40:50.293Z,5.3
2022-10-09T19:42:50.374Z,4.6
2022-10-09T19:44:50.365Z,4.6
2022-10-09T19:46:49.791Z,4.6
2022-10-09T19:48:49.702Z,3.9
2022-10-09T19:50:49.663Z,3.9
2022-10-09T19:52:49.853Z,3.6
2022-10-09T19:54:49.864Z,3.1
2022-10-09T19:56:50.133Z,3.1
2022-10-09T19:58:50.297Z,3.7
2022-10-09T20:00:50.410Z,3.7
2022-10-09T20:02:49.895Z,3.2
2022-10-09T20:04:50.356Z,3.2
2022-10-09T20:06:49.783Z,2.9
2022-10-09T20:08:49.602Z,2.7
2022-10-09T20:10:49.959Z,2.7
2022-10-09T20:12:50.253Z,4.9
2022-10-09T20:14:50.351Z,4.9
2022-10-09T20:16:49.879Z,2.6
2022-10-09T20:18:49.996Z,2.7
2022-10-09T20:20:49.942Z,2.7
2022-10-09T20:22:50.249Z,2.7
2022-10-09T20:24:49.581Z,2.9
2022-10-09T20:26:49.947Z,2.7
2022-10-09T20:28:50.180Z,3.0
2022-10-09T20:30:50.379Z,2.5
2022-10-09T20:32:53.091Z,2.5
2022-10-09T20:34:50.284Z,2.9
2022-10-09T20:36:49.834Z,3.7
2022-10-09T20:38:50.005Z,3.4
2022-10-09T20:40:50.000Z,2.9
2022-10-09T20:42:50.247Z,2.9
2022-10-09T20:44:50.439Z,2.9
2022-10-09T20:46:49.855Z,2.9
2022-10-09T20:48:49.981Z,2.9
2022-10-09T20:50:49.990Z,3.5
2022-10-09T20:52:50.297Z,3.5
2022-10-09T20:54:50.275Z,2.6
2022-10-09T20:56:49.748Z,3.4
2022-10-09T20:58:49.703Z,3.2
2022-10-09T21:00:49.724Z,3.7
2022-10-09T21:02:49.826Z,3.7
2022-10-09T21:04:50.031Z,3.7
2022-10-09T21:06:50.563Z,2.6
2022-10-09T21:08:49.577Z,2.7
2022-10-09T21:10:50.531Z,2.7
2022-10-09T21:12:49.869Z,2.8
2022-10-09T21:14:49.598Z,3.5
2022-10-09T21:16:50.003Z,6.5
2022-10-09T21:18:50.090Z,2.8
2022-10-09T21:20:50.196Z,2.8
2022-10-09T21:22:50.324Z,3.5
2022-10-09T21:24:49.593Z,3.5
2022-10-09T21:26:49.991Z,2.7
2022-10-09T21:28:49.910Z,4.3
2022-10-09T21:30:50.545Z,4.3
2022-10-09T21:32:49.936Z,3.5
2022-10-09T21:34:50.433Z,2.6
2022-10-09T21:37:16.237Z,2.6
2022-10-09T21:38:50.169Z,3.3
2022-10-09T21:40:50.244Z,3.3
2022-10-09T21:42:50.344Z,3.3
2022-10-09T21:44:50.164Z,2.5
2022-10-09T21:46:49.610Z,3.7
2022-10-09T21:48:49.582Z,3.0
2022-10-09T21:50:49.852Z,3.0
2022-10-09T21:52:50.213Z,2.5
2022-10-09T21:54:49.589Z,4.5
2022-10-09T21:56:50.074Z,4.5
2022-10-09T21:58:49.984Z,2.9
2022-10-09T22:00:50.122Z,2.9
2022-10-09T22:02:50.519Z,2.9
2022-10-09T22:04:50.294Z,3.4
2022-10-09T22:06:49.600Z,3.9
2022-10-09T22:08:50.028Z,2.5
2022-10-09T22:10:49.942Z,2.6
2022-10-09T22:12:50.072Z,2.6
2022-10-09T22:14:49.792Z,2.9
2022-10-09T22:16:50.192Z,3.0
2022-10-09T22:18:50.204Z,3.0
2022-10-09T22:20:50.200Z,3.4
2022-10-09T22:22:50.327Z,3.8
2022-10-09T22:24:50.560Z,3.1
2022-10-09T22:26:49.981Z,3.6
2022-10-09T22:28:49.795Z,3.6
2022-10-09T22:30:49.752Z,3.3
2022-10-09T22:32:49.981Z,3.9
2022-10-09T22:34:50.408Z,4.0
2022-10-09T22:36:49.807Z,4.9
2022-10-09T22:38:49.903Z,4.9
2022-10-09T22:40:49.896Z,3.6
2022-10-09T22:42:50.256Z,2.8
2022-10-09T22:44:50.316Z,2.8
2022-10-09T22:46:49.590Z,2.8
2022-10-09T22:48:49.665Z,2.8
2022-10-09T22:50:49.719Z,2.8
2022-10-09T22:52:50.069Z,2.9
2022-10-09T22:54:50.423Z,3.0
2022-10-09T22:56:49.788Z,2.9
2022-10-09T22:58:49.914Z,2.9
2022-10-09T23:00:50.275Z,3.2
2022-10-09T23:02:50.457Z,3.6
2022-10-09T23:04:50.246Z,2.7
2022-10-09T23:06:49.771Z,2.7
2022-10-09T23:08:49.811Z,2.6
2022-10-09T23:10:49.813Z,5.8
2022-10-09T23:12:50.080Z,3.5
2022-10-09T23:14:50.307Z,3.1
2022-10-09T23:16:49.828Z,3.1
2022-10-09T23:18:50.067Z,2.7
2022-10-09T23:20:50.012Z,2.6
2022-10-09T23:22:50.739Z,3.8
2022-10-09T23:24:49.867Z,4.8
2022-10-09T23:26:50.256Z,4.8
2022-10-09T23:28:49.694Z,4.7
2022-10-09T23:30:49.813Z,3.4
2022-10-09T23:32:50.129Z,3.4
2022-10-09T23:34:50.261Z,5.4
2022-10-09T23:36:49.618Z,5.4
2022-10-09T23:38:49.618Z,3.0
2022-10-09T23:40:49.627Z,3.2
2022-10-09T23:42:49.992Z,3.0
2022-10-09T23:44:49.805Z,3.3
2022-10-09T23:46:49.981Z,3.3
2022-10-09T23:48:50.011Z,2.9
2022-10-09T23:50:50.064Z,4.3
2022-10-09T23:52:50.422Z,4.3
2022-10-09T23:54:50.535Z,2.9
2022-10-09T23:56:49.995Z,2.9
2022-10-09T23:58:50.049Z,3.3
